createdAt,value
2019-05-15T00:00:38.639Z,2.70
2019-05-15T00:03:42.960Z,2.70
2019-05-15T00:06:48.559Z,2.47
2019-05-15T00:09:52.772Z,2.60
2019-05-15T00:12:59.635Z,2.40
2019-05-15T00:16:03.489Z,2.50
2019-05-15T00:19:08.696Z,2.60
2019-05-15T00:22:12.703Z,3.10
2019-05-15T00:25:18.682Z,2.70
2019-05-15T00:28:22.263Z,2.50
2019-05-15T00:31:26.192Z,2.70
2019-05-15T00:34:30.062Z,2.70
2019-05-15T00:37:34.123Z,2.67
2019-05-15T00:40:39.495Z,2.50
2019-05-15T00:43:43.830Z,2.60
2019-05-15T00:46:48.803Z,2.55
2019-05-15T00:50:09.039Z,2.47
2019-05-15T00:53:14.142Z,2.83
2019-05-15T00:56:19.464Z,2.60
2019-05-15T00:59:26.789Z,2.43
2019-05-15T01:02:29.196Z,2.50
2019-05-15T01:05:33.457Z,2.47
2019-05-15T01:08:39.363Z,2.60
2019-05-15T01:11:43.430Z,2.70
2019-05-15T01:14:49.024Z,2.77
2019-05-15T01:18:01.150Z,2.70
2019-05-15T01:21:05.226Z,2.80
2019-05-15T01:24:09.403Z,2.57
2019-05-15T01:27:13.220Z,2.50
2019-05-15T01:30:17.994Z,2.80
2019-05-15T01:33:23.077Z,2.80
2019-05-15T01:36:28.710Z,2.40
2019-05-15T01:39:32.752Z,2.67
2019-05-15T01:42:38.618Z,2.63
2019-05-15T01:45:42.370Z,2.70
2019-05-15T01:48:46.482Z,3.00
2019-05-15T01:51:50.799Z,3.03
2019-05-15T01:54:54.661Z,2.60
2019-05-15T01:57:58.423Z,2.87
2019-05-15T02:01:09.190Z,2.63
2019-05-15T02:04:13.028Z,2.70
2019-05-15T02:07:18.668Z,2.63
2019-05-15T02:10:23.050Z,2.63
2019-05-15T02:13:28.268Z,2.80
2019-05-15T02:16:33.190Z,2.73
2019-05-15T02:19:41.433Z,2.60
2019-05-15T02:22:45.801Z,2.97
2019-05-15T02:25:49.790Z,2.93
2019-05-15T02:29:00.511Z,2.67
2019-05-15T02:32:01.705Z,2.80
2019-05-15T02:35:09.529Z,3.00
2019-05-15T02:38:15.393Z,2.63
2019-05-15T02:41:19.481Z,2.97
2019-05-15T02:44:22.905Z,2.70
2019-05-15T02:47:29.096Z,2.90
2019-05-15T02:50:39.230Z,2.90
2019-05-15T02:53:43.258Z,3.20
2019-05-15T02:56:49.504Z,2.90
2019-05-15T02:59:53.185Z,3.00
2019-05-15T03:03:00.142Z,3.37
2019-05-15T03:06:03.466Z,2.90
2019-05-15T03:09:09.456Z,2.80
2019-05-15T03:12:12.862Z,3.00
2019-05-15T03:15:19.464Z,2.83
2019-05-15T03:18:23.349Z,3.20
2019-05-15T03:21:29.529Z,3.03
2019-05-15T03:24:33.691Z,3.10
2019-05-15T03:27:39.618Z,3.00
2019-05-15T03:31:12.147Z,2.80
2019-05-15T03:33:54.130Z,3.10
2019-05-15T03:36:55.919Z,2.77
2019-05-15T03:39:59.942Z,2.67
2019-05-15T03:43:04.264Z,2.83
2019-05-15T03:46:12.715Z,3.17
2019-05-15T03:49:19.905Z,2.73
2019-05-15T03:52:23.091Z,3.17
2019-05-15T03:55:29.573Z,3.00
2019-05-15T03:58:32.785Z,2.83
2019-05-15T04:01:42.943Z,2.97
2019-05-15T04:04:42.470Z,2.80
2019-05-15T04:07:49.468Z,2.80
2019-05-15T04:10:51.926Z,2.90
2019-05-15T04:13:55.749Z,2.97
2019-05-15T04:16:59.946Z,3.00
2019-05-15T04:20:03.951Z,2.77
2019-05-15T04:23:10.128Z,3.07
2019-05-15T04:26:13.932Z,3.20
2019-05-15T04:29:19.486Z,2.70
2019-05-15T04:32:23.261Z,2.70
2019-05-15T04:35:28.974Z,2.90
2019-05-15T04:38:34.053Z,2.90
2019-05-15T04:41:39.237Z,3.37
2019-05-15T04:44:43.576Z,3.00
2019-05-15T04:47:49.807Z,2.90
2019-05-15T04:50:53.326Z,3.25
2019-05-15T04:53:58.662Z,2.87
2019-05-15T04:57:02.674Z,3.00
2019-05-15T05:00:09.728Z,3.17
2019-05-15T05:03:15.361Z,3.10
2019-05-15T05:06:19.614Z,2.93
2019-05-15T05:09:23.597Z,2.90
2019-05-15T05:12:28.968Z,2.93
2019-05-15T05:15:32.998Z,3.00
2019-05-15T05:18:41.400Z,3.30
2019-05-15T05:21:42.490Z,4.37
2019-05-15T05:24:47.801Z,3.83
2019-05-15T05:27:51.970Z,3.10
2019-05-15T05:30:58.826Z,3.50
2019-05-15T05:34:02.712Z,3.10
2019-05-15T05:37:07.822Z,3.13
2019-05-15T05:40:12.384Z,3.37
2019-05-15T05:43:18.250Z,3.00
2019-05-15T05:46:23.919Z,2.73
2019-05-15T05:49:30.141Z,2.57
2019-05-15T05:52:33.826Z,2.77
2019-05-15T05:55:38.468Z,2.80
2019-05-15T05:58:42.332Z,3.00
2019-05-15T06:01:48.395Z,3.10
2019-05-15T06:04:51.562Z,3.17
2019-05-15T06:07:55.278Z,2.70
2019-05-15T06:10:59.020Z,2.97
2019-05-15T06:14:02.756Z,2.83
2019-05-15T06:17:08.377Z,3.10
2019-05-15T06:20:15.518Z,2.90
2019-05-15T06:23:23.778Z,2.90
2019-05-15T06:26:24.957Z,3.83
2019-05-15T06:29:28.624Z,3.08
2019-05-15T06:32:32.301Z,3.50
2019-05-15T06:35:36.310Z,3.50
2019-05-15T06:38:40.009Z,2.90
2019-05-15T06:41:43.665Z,2.77
2019-05-15T06:44:48.369Z,2.62
2019-05-15T06:47:52.296Z,2.50
2019-05-15T06:50:57.994Z,2.30
2019-05-15T06:54:04.039Z,2.43
2019-05-15T06:57:09.048Z,2.40
2019-05-15T07:00:13.229Z,2.00
2019-05-15T07:03:24.693Z,2.10
2019-05-15T07:06:22.645Z,1.80
2019-05-15T07:09:28.412Z,1.90
2019-05-15T07:12:31.692Z,1.87
2019-05-15T07:15:35.420Z,1.73
2019-05-15T07:18:39.322Z,1.73
2019-05-15T07:21:42.998Z,1.70
2019-05-15T07:24:47.809Z,1.90
2019-05-15T07:27:51.762Z,2.10
2019-05-15T07:30:55.505Z,1.60
2019-05-15T07:33:59.959Z,1.90
2019-05-15T07:37:03.812Z,1.97
2019-05-15T07:40:08.578Z,1.60
2019-05-15T07:43:12.433Z,1.77
2019-05-15T07:46:18.401Z,1.77
2019-05-15T07:49:21.902Z,2.13
2019-05-15T07:52:25.602Z,1.87
2019-05-15T07:55:29.733Z,1.87
2019-05-15T07:58:33.592Z,2.23
2019-05-15T08:01:38.603Z,1.70
2019-05-15T08:04:42.518Z,1.80
2019-05-15T08:07:48.768Z,1.80
2019-05-15T08:10:51.989Z,2.00
2019-05-15T08:13:58.008Z,1.90
2019-05-15T08:17:01.234Z,2.00
2019-05-15T08:20:09.038Z,1.90
2019-05-15T08:23:12.685Z,1.70
2019-05-15T08:26:17.823Z,1.77
2019-05-15T08:29:21.997Z,1.83
2019-05-15T08:32:27.927Z,2.00
2019-05-15T08:35:31.157Z,1.87
2019-05-15T08:38:34.889Z,1.90
2019-05-15T08:41:39.113Z,2.00
2019-05-15T08:44:43.046Z,2.07
2019-05-15T08:47:49.250Z,2.00
2019-05-15T08:50:52.473Z,1.73
2019-05-15T08:53:58.008Z,1.80
2019-05-15T08:57:01.546Z,1.80
2019-05-15T09:00:09.254Z,1.80
2019-05-15T09:03:12.126Z,1.80
2019-05-15T09:06:18.617Z,1.67
2019-05-15T09:09:21.408Z,1.63
2019-05-15T09:12:25.070Z,1.67
2019-05-15T09:15:29.399Z,1.60
2019-05-15T09:18:34.708Z,1.67
2019-05-15T09:21:39.033Z,1.60
2019-05-15T09:24:42.698Z,1.50
2019-05-15T09:27:48.662Z,1.52
2019-05-15T09:30:52.641Z,1.70
2019-05-15T09:33:58.564Z,1.57
2019-05-15T09:37:01.970Z,2.20
2019-05-15T09:40:08.600Z,1.70
2019-05-15T09:43:12.014Z,1.60
2019-05-15T09:46:18.288Z,1.60
2019-05-15T09:49:21.486Z,1.80
2019-05-15T09:52:25.174Z,1.43
2019-05-15T09:55:29.068Z,1.47
2019-05-15T09:58:32.754Z,1.70
2019-05-15T10:01:39.254Z,2.00
2019-05-15T10:04:41.848Z,1.90
2019-05-15T10:07:45.500Z,1.80
2019-05-15T10:10:49.176Z,1.53
2019-05-15T10:13:52.954Z,1.73
2019-05-15T10:16:58.373Z,2.30
2019-05-15T10:20:02.818Z,1.70
2019-05-15T10:23:08.772Z,1.80
2019-05-15T10:26:14.222Z,1.67
2019-05-15T10:29:19.190Z,1.60
2019-05-15T10:32:22.835Z,1.90
2019-05-15T10:35:31.088Z,1.67
2019-05-15T10:38:32.032Z,1.50
2019-05-15T10:41:35.671Z,1.40
2019-05-15T10:44:39.359Z,1.80
2019-05-15T10:47:42.990Z,2.03
2019-05-15T10:50:46.883Z,1.93
2019-05-15T10:53:50.806Z,2.20
2019-05-15T10:56:54.806Z,1.90
2019-05-15T10:59:58.536Z,1.43
2019-05-15T11:03:02.342Z,1.62
2019-05-15T11:06:06.185Z,1.80
2019-05-15T11:09:10.065Z,2.23
2019-05-15T11:12:13.750Z,1.83
2019-05-15T11:15:18.547Z,1.90
2019-05-15T11:18:22.509Z,1.80
2019-05-15T11:21:26.302Z,1.63
2019-05-15T11:24:32.480Z,3.30
2019-05-15T11:27:35.656Z,1.80
2019-05-15T11:30:39.587Z,2.70
2019-05-15T11:33:43.573Z,2.03
2019-05-15T11:36:48.322Z,1.70
2019-05-15T11:39:52.334Z,1.73
2019-05-15T11:42:56.117Z,1.80
2019-05-15T11:45:59.807Z,1.80
2019-05-15T11:49:03.813Z,1.90
2019-05-15T11:52:08.776Z,2.17
2019-05-15T11:55:12.975Z,1.70
2019-05-15T11:58:18.889Z,2.17
2019-05-15T12:01:22.391Z,1.70
2019-05-15T12:04:33.099Z,1.70
2019-05-15T12:07:31.537Z,1.60
2019-05-15T12:10:35.251Z,1.87
2019-05-15T12:13:38.925Z,1.73
2019-05-15T12:16:42.669Z,1.72
2019-05-15T12:19:55.037Z,1.70
2019-05-15T12:22:51.996Z,2.37
2019-05-15T12:25:56.033Z,1.80
2019-05-15T12:29:01.443Z,1.67
2019-05-15T12:32:21.985Z,1.70
2019-05-15T12:35:11.515Z,1.73
2019-05-15T12:38:15.225Z,1.70
2019-05-15T12:59:51.580Z,1.67
2019-05-15T13:02:55.355Z,1.80
2019-05-15T13:05:59.509Z,1.90
2019-05-15T13:09:03.645Z,1.90
2019-05-15T13:12:08.517Z,1.97
2019-05-15T13:15:12.887Z,1.92
2019-05-15T13:18:17.994Z,1.80
2019-05-15T13:21:22.133Z,1.57
2019-05-15T13:24:28.171Z,1.80
2019-05-15T13:27:31.330Z,1.90
2019-05-15T13:30:40.342Z,1.70
2019-05-15T13:33:41.041Z,1.60
2019-05-15T13:36:45.065Z,2.47
2019-05-15T13:39:48.984Z,2.30
2019-05-15T13:42:55.186Z,2.10
2019-05-15T13:45:59.261Z,2.00
2019-05-15T13:49:02.996Z,2.00
2019-05-15T13:52:08.513Z,2.47
2019-05-15T13:55:12.454Z,2.58
2019-05-15T13:58:16.109Z,2.30
2019-05-15T14:01:20.003Z,1.90
2019-05-15T14:04:24.076Z,2.20
2019-05-15T14:07:33.125Z,2.30
2019-05-15T14:10:33.372Z,2.20
2019-05-15T14:13:39.249Z,2.40
2019-05-15T14:16:43.318Z,2.70
2019-05-15T14:19:48.589Z,2.40
2019-05-15T14:22:52.631Z,2.70
2019-05-15T14:25:58.908Z,2.93
2019-05-15T14:29:02.150Z,2.90
2019-05-15T14:32:08.165Z,2.50
2019-05-15T14:35:11.952Z,2.20
2019-05-15T14:38:15.727Z,2.00
2019-05-15T14:41:19.776Z,2.03
2019-05-15T14:44:23.617Z,2.00
2019-05-15T14:47:29.540Z,2.00
2019-05-15T14:50:32.917Z,2.00
2019-05-15T14:53:38.590Z,2.13
2019-05-15T14:56:42.007Z,2.13
2019-05-15T14:59:48.660Z,2.10
2019-05-15T15:02:51.961Z,2.20
2019-05-15T15:05:58.116Z,2.10
2019-05-15T15:09:01.479Z,2.37
2019-05-15T15:12:08.018Z,2.10
2019-05-15T15:15:11.667Z,2.13
2019-05-15T15:18:15.514Z,2.13
2019-05-15T15:21:22.070Z,2.23
2019-05-15T15:24:24.699Z,2.03
2019-05-15T15:27:28.380Z,2.33
2019-05-15T15:30:33.091Z,1.90
2019-05-15T15:33:39.107Z,2.17
2019-05-15T15:36:42.816Z,2.20
2019-05-15T15:39:48.211Z,2.13
2019-05-15T15:42:52.053Z,1.90
2019-05-15T15:45:58.000Z,2.20
2019-05-15T15:49:01.328Z,2.03
2019-05-15T15:52:05.117Z,2.07
2019-05-15T15:55:09.316Z,2.10
2019-05-15T15:58:13.352Z,2.10
2019-05-15T16:01:18.571Z,1.70
2019-05-15T16:04:22.478Z,2.20
2019-05-15T16:07:28.219Z,2.10
2019-05-15T16:10:31.700Z,2.20
2019-05-15T16:13:35.493Z,2.20
2019-05-15T16:16:39.240Z,2.87
2019-05-15T16:19:43.160Z,2.20
2019-05-15T16:22:48.567Z,1.93
2019-05-15T16:25:52.520Z,2.17
2019-05-15T16:28:58.028Z,2.37
2019-05-15T16:32:01.706Z,2.13
2019-05-15T16:35:08.077Z,2.20
2019-05-15T16:38:11.056Z,1.73
2019-05-15T16:41:14.830Z,1.90
2019-05-15T16:44:18.564Z,2.03
2019-05-15T16:47:22.407Z,2.00
2019-05-15T16:50:28.824Z,2.10
2019-05-15T16:53:32.642Z,2.00
2019-05-15T16:56:37.405Z,2.03
2019-05-15T16:59:42.160Z,1.97
2019-05-15T17:02:48.082Z,1.90
2019-05-15T17:05:51.309Z,2.30
2019-05-15T17:08:55.197Z,2.43
2019-05-15T17:11:59.012Z,2.10
2019-05-15T17:15:02.856Z,2.53
2019-05-15T17:18:08.750Z,2.40
2019-05-15T17:21:12.220Z,2.33
2019-05-15T17:24:16.495Z,2.60
2019-05-15T17:27:20.401Z,2.30
2019-05-15T17:30:26.054Z,2.60
2019-05-15T17:33:30.170Z,4.23
2019-05-15T17:36:34.214Z,2.70
2019-05-15T17:39:41.609Z,2.80
2019-05-15T17:42:43.804Z,2.60
2019-05-15T17:45:48.340Z,2.72
2019-05-15T17:48:55.570Z,2.43
2019-05-15T17:51:58.195Z,2.37
2019-05-15T17:55:02.081Z,3.63
2019-05-15T17:58:05.821Z,2.60
2019-05-15T18:01:09.846Z,2.70
2019-05-15T18:04:13.630Z,2.37
2019-05-15T18:07:17.368Z,2.33
2019-05-15T18:10:21.429Z,3.03
2019-05-15T18:13:25.213Z,3.13
2019-05-15T18:16:29.182Z,2.73
2019-05-15T18:19:33.204Z,2.73
2019-05-15T18:22:37.908Z,2.80
2019-05-15T18:25:41.713Z,2.70
2019-05-15T18:28:45.899Z,3.00
2019-05-15T18:31:49.601Z,2.83
2019-05-15T18:34:53.292Z,2.80
2019-05-15T18:37:58.990Z,3.13
2019-05-15T18:41:03.871Z,2.50
2019-05-15T18:44:07.680Z,2.80
2019-05-15T18:47:11.372Z,2.80
2019-05-15T18:50:15.785Z,2.40
2019-05-15T18:53:19.471Z,2.80
2019-05-15T18:56:23.269Z,2.60
2019-05-15T18:59:27.082Z,2.90
2019-05-15T19:02:30.876Z,2.80
2019-05-15T19:05:34.657Z,2.70
2019-05-15T19:08:38.818Z,2.67
2019-05-15T19:11:45.666Z,3.00
2019-05-15T19:14:49.621Z,2.80
2019-05-15T19:17:53.767Z,3.00
2019-05-15T19:20:58.561Z,2.83
2019-05-15T19:24:02.618Z,2.93
2019-05-15T19:27:07.997Z,2.77
2019-05-15T19:30:13.015Z,2.80
2019-05-15T19:33:22.538Z,3.90
2019-05-15T19:36:22.254Z,2.70
2019-05-15T19:39:27.976Z,2.65
2019-05-15T19:42:31.671Z,2.70
2019-05-15T19:45:35.474Z,3.05
2019-05-15T19:48:40.004Z,2.73
2019-05-15T19:51:45.078Z,2.70
2019-05-15T19:54:48.797Z,3.00
2019-05-15T19:57:52.748Z,2.80
2019-05-15T20:00:56.828Z,2.90
2019-05-15T20:04:00.820Z,3.00
2019-05-15T20:07:04.681Z,2.83
2019-05-15T20:10:10.136Z,3.17
2019-05-15T20:13:13.814Z,2.97
2019-05-15T20:16:21.078Z,3.60
2019-05-15T20:19:23.331Z,3.20
2019-05-15T20:22:28.409Z,2.67
2019-05-15T20:25:32.414Z,2.90
2019-05-15T20:28:38.734Z,3.17
2019-05-15T20:31:41.597Z,2.87
2019-05-15T20:34:45.274Z,2.70
2019-05-15T20:37:49.037Z,2.63
2019-05-15T20:40:52.869Z,2.70
2019-05-15T20:43:58.262Z,2.53
2019-05-15T20:47:02.610Z,2.80
2019-05-15T20:50:08.512Z,2.83
2019-05-15T20:53:12.310Z,2.60
2019-05-15T20:56:16.174Z,2.87
2019-05-15T20:59:20.253Z,2.43
2019-05-15T21:02:24.078Z,2.37
2019-05-15T21:05:27.914Z,2.60
2019-05-15T21:08:32.261Z,2.67
2019-05-15T21:11:39.491Z,2.30
2019-05-15T21:14:41.437Z,2.70
2019-05-15T21:17:54.554Z,2.50
2019-05-15T21:20:50.897Z,2.50
2019-05-15T21:23:54.633Z,2.40
2019-05-15T21:26:58.425Z,2.53
2019-05-15T21:30:02.512Z,2.63
2019-05-15T21:33:08.575Z,2.90
2019-05-15T21:36:12.273Z,2.30
2019-05-15T21:39:16.380Z,2.40
2019-05-15T21:42:20.180Z,2.17
2019-05-15T21:45:23.866Z,2.43
2019-05-15T21:48:28.733Z,2.10
2019-05-15T21:51:32.763Z,2.67
2019-05-15T21:54:38.178Z,2.40
2019-05-15T21:57:42.825Z,2.50
2019-05-15T22:00:50.993Z,2.40
2019-05-15T22:03:55.002Z,2.57
2019-05-15T22:06:58.921Z,2.60
2019-05-15T22:10:03.411Z,2.30
2019-05-15T22:13:07.276Z,2.00
2019-05-15T22:16:11.237Z,2.60
2019-05-15T22:19:15.397Z,2.27
2019-05-15T22:22:19.281Z,2.60
2019-05-15T22:25:23.109Z,2.47
2019-05-15T22:28:28.172Z,2.70
2019-05-15T22:31:32.349Z,2.60
2019-05-15T22:34:36.081Z,2.37
2019-05-15T22:37:41.634Z,2.43
2019-05-15T22:40:45.765Z,2.60
2019-05-15T22:43:49.637Z,2.40
2019-05-15T22:46:54.399Z,2.40
2019-05-15T22:49:59.060Z,2.30
2019-05-15T22:53:03.109Z,2.50
2019-05-15T22:56:09.142Z,2.70
2019-05-15T22:59:12.288Z,2.43
2019-05-15T23:02:17.992Z,2.30
2019-05-15T23:05:27.799Z,2.40
2019-05-15T23:08:29.010Z,2.17
2019-05-15T23:11:32.682Z,2.57
2019-05-15T23:14:37.974Z,2.63
2019-05-15T23:17:41.762Z,2.27
2019-05-15T23:20:47.875Z,2.37
2019-05-15T23:23:51.725Z,2.50
2019-05-15T23:26:55.746Z,2.63
2019-05-15T23:29:59.420Z,2.77
2019-05-15T23:33:03.214Z,2.60
2019-05-15T23:36:06.937Z,2.70
2019-05-15T23:39:10.753Z,3.03
2019-05-15T23:42:14.713Z,3.00
2019-05-15T23:45:18.477Z,2.70
2019-05-15T23:48:22.480Z,2.80
2019-05-15T23:51:27.947Z,2.77
2019-05-15T23:54:31.829Z,2.77
2019-05-15T23:57:35.553Z,2.30
